Time;durP1;ratioP1;P1;durP2;ratioP2;P2;SDS_P1;SDS_P2;PMS_P1;PMS_P2;Temp;Humidity;BMP_temperature;BMP_pressure;BME280_temperature;BME280_humidity;BME280_pressure;Samples;Min_cycle;Max_cycle;Signal;HPM_P1;HPM_P2
2022/04/04 00:02:25;;;;;;;;;;;19.80;34.10;;;;;;5050847;28;19912;-59
2022/04/04 00:04:50;;;;;;;;;;;19.80;34.20;;;;;;5048203;28;19913;-59
2022/04/04 00:07:16;;;;;;;;;;;19.80;34.10;;;;;;5048311;28;19921;-59
2022/04/04 00:09:41;;;;;;;;;;;19.80;34.20;;;;;;5064833;28;19912;-58
2022/04/04 00:12:07;;;;;;;;;;;19.70;34.20;;;;;;5027976;28;19920;-59
2022/04/04 00:14:32;;;;;;;;;;;19.70;34.20;;;;;;5033495;28;19927;-58
2022/04/04 00:17:00;;;;;;;;;;;19.70;34.30;;;;;;5064446;28;19919;-59
2022/04/04 00:19:25;;;;;;;;;;;19.70;34.20;;;;;;5050513;28;19924;-58
2022/04/04 00:21:51;;;;;;;;;;;19.70;34.30;;;;;;5020604;28;19936;-59
2022/04/04 00:24:16;;;;;;;;;;;19.70;34.20;;;;;;5011613;28;19921;-59
2022/04/04 00:26:42;;;;;;;;;;;19.70;34.20;;;;;;5041257;28;19917;-58
2022/04/04 00:29:07;;;;;;;;;;;19.70;34.20;;;;;;5027080;28;20450;-59
2022/04/04 00:31:33;;;;;;;;;;;19.70;34.20;;;;;;5027635;28;19924;-59
2022/04/04 00:33:58;;;;;;;;;;;19.70;34.10;;;;;;5027045;28;19967;-59
2022/04/04 00:36:23;;;;;;;;;;;19.60;34.00;;;;;;5029182;28;19912;-59
2022/04/04 00:38:49;;;;;;;;;;;19.60;34.00;;;;;;5047489;28;19917;-58
2022/04/04 00:41:15;;;;;;;;;;;19.60;34.10;;;;;;5014338;28;20059;-59
2022/04/04 00:43:41;;;;;;;;;;;19.60;34.20;;;;;;5042135;28;20352;-59
2022/04/04 00:46:06;;;;;;;;;;;19.60;34.20;;;;;;5022010;28;19935;-58
2022/04/04 00:48:32;;;;;;;;;;;19.60;34.20;;;;;;5043147;28;20291;-59
2022/04/04 00:50:57;;;;;;;;;;;19.50;34.20;;;;;;5022811;28;19956;-59
2022/04/04 00:53:23;;;;;;;;;;;19.60;34.30;;;;;;5036692;28;20764;-59
2022/04/04 00:55:48;;;;;;;;;;;19.50;34.20;;;;;;5027963;28;19913;-59
2022/04/04 00:58:14;;;;;;;;;;;19.50;34.20;;;;;;5011532;28;19920;-59
2022/04/04 01:00:40;;;;;;;;;;;19.50;34.40;;;;;;5025161;28;19971;-59
2022/04/04 01:03:06;;;;;;;;;;;19.50;34.20;;;;;;5046843;28;20359;-59
2022/04/04 01:05:32;;;;;;;;;;;19.50;34.20;;;;;;5024758;28;19913;-59
2022/04/04 01:07:57;;;;;;;;;;;19.50;34.10;;;;;;5044448;28;19925;-59
2022/04/04 01:10:23;;;;;;;;;;;19.50;34.20;;;;;;5044669;28;20355;-59
2022/04/04 01:12:52;;;;;;;;;;;19.50;34.30;;;;;;5045487;28;19962;-59
2022/04/04 01:15:18;;;;;;;;;;;19.40;34.30;;;;;;5027408;28;19920;-59
2022/04/04 01:17:45;;;;;;;;;;;19.40;34.30;;;;;;5028865;28;19917;-59
2022/04/04 01:20:11;;;;;;;;;;;19.40;34.80;;;;;;5010431;28;19913;-59
2022/04/04 01:22:36;;;;;;;;;;;19.20;34.80;;;;;;5040040;28;19947;-59
2022/04/04 01:25:05;;;;;;;;;;;19.20;35.00;;;;;;5027910;28;19913;-59
2022/04/04 01:27:30;;;;;;;;;;;19.30;35.00;;;;;;5037544;28;20345;-59
2022/04/04 01:29:56;;;;;;;;;;;19.40;35.00;;;;;;5018450;28;19931;-59
2022/04/04 01:32:21;;;;;;;;;;;19.50;34.80;;;;;;5035867;28;19952;-59
2022/04/04 01:34:47;;;;;;;;;;;19.80;34.60;;;;;;5030340;28;20335;-59
2022/04/04 01:37:12;;;;;;;;;;;20.10;34.20;;;;;;5022715;28;20007;-59
2022/04/04 01:39:38;;;;;;;;;;;20.40;33.80;;;;;;5010231;28;19940;-59
2022/04/04 01:42:04;;;;;;;;;;;20.80;33.30;;;;;;5014488;28;19935;-59
2022/04/04 01:44:30;;;;;;;;;;;21.10;32.90;;;;;;5028111;28;19914;-59
2022/04/04 01:46:56;;;;;;;;;;;21.30;32.40;;;;;;5028713;28;19917;-61
2022/04/04 01:49:21;;;;;;;;;;;21.40;32.00;;;;;;5040144;28;19975;-59
2022/04/04 01:51:46;;;;;;;;;;;21.60;31.90;;;;;;5047449;28;20264;-59
2022/04/04 01:54:12;;;;;;;;;;;21.70;31.80;;;;;;5035718;28;19912;-59
2022/04/04 01:56:37;;;;;;;;;;;21.70;31.70;;;;;;5006685;28;19960;-59
2022/04/04 01:59:04;;;;;;;;;;;21.70;31.70;;;;;;5036758;28;19917;-59
2022/04/04 02:01:34;;;;;;;;;;;21.60;31.80;;;;;;5026904;28;19920;-59
2022/04/04 02:03:59;;;;;;;;;;;21.50;31.90;;;;;;5036439;28;19942;-59
2022/04/04 02:06:25;;;;;;;;;;;21.40;32.10;;;;;;5022265;28;20384;-59
2022/04/04 02:08:50;;;;;;;;;;;21.30;32.20;;;;;;5041386;28;19913;-59
2022/04/04 02:11:16;;;;;;;;;;;21.30;32.30;;;;;;5021533;28;19917;-59
2022/04/04 02:13:42;;;;;;;;;;;21.30;32.40;;;;;;5043369;28;20459;-59
2022/04/04 02:16:08;;;;;;;;;;;21.20;32.40;;;;;;5020975;28;19960;-59
2022/04/04 02:18:34;;;;;;;;;;;21.20;32.50;;;;;;5019740;28;19966;-59
2022/04/04 02:21:00;;;;;;;;;;;21.10;32.50;;;;;;5041827;28;20406;-59
2022/04/04 02:23:25;;;;;;;;;;;21.10;32.60;;;;;;5006006;28;19916;-59
2022/04/04 02:25:52;;;;;;;;;;;21.00;32.60;;;;;;5027429;28;19917;-59
2022/04/04 02:28:17;;;;;;;;;;;20.90;32.70;;;;;;5023989;28;19956;-59
2022/04/04 02:30:43;;;;;;;;;;;20.90;32.60;;;;;;5025719;28;20022;-59
2022/04/04 02:33:08;;;;;;;;;;;20.80;32.70;;;;;;5029351;28;19927;-59
2022/04/04 02:35:34;;;;;;;;;;;20.80;32.60;;;;;;5013913;28;20257;-59
2022/04/04 02:38:00;;;;;;;;;;;20.80;32.50;;;;;;5043777;28;20012;-59
2022/04/04 02:40:25;;;;;;;;;;;20.80;32.50;;;;;;5025423;28;19913;-59
2022/04/04 02:42:51;;;;;;;;;;;20.70;32.60;;;;;;5024245;28;20273;-59
2022/04/04 02:45:16;;;;;;;;;;;20.70;32.50;;;;;;5031314;28;19928;-59
2022/04/04 02:47:42;;;;;;;;;;;20.70;32.40;;;;;;5029548;28;20331;-59
2022/04/04 02:50:08;;;;;;;;;;;20.70;32.50;;;;;;5025515;28;19919;-60
2022/04/04 02:52:33;;;;;;;;;;;20.70;32.40;;;;;;5015017;28;19992;-59
2022/04/04 02:54:58;;;;;;;;;;;20.70;33.10;;;;;;5044522;28;20369;-59
2022/04/04 02:57:24;;;;;;;;;;;20.60;32.40;;;;;;5031122;28;19917;-59
2022/04/04 02:59:49;;;;;;;;;;;20.60;32.40;;;;;;5026090;28;19913;-59
2022/04/04 03:02:15;;;;;;;;;;;20.60;32.60;;;;;;5026048;28;20376;-60
2022/04/04 03:04:42;;;;;;;;;;;20.50;33.20;;;;;;5024538;28;19944;-60
2022/04/04 03:07:08;;;;;;;;;;;20.40;33.20;;;;;;5028553;28;19921;-59
2022/04/04 03:09:33;;;;;;;;;;;20.30;33.40;;;;;;5053303;28;20284;-59
2022/04/04 03:12:01;;;;;;;;;;;20.20;33.60;;;;;;5033876;28;19924;-59
2022/04/04 03:14:26;;;;;;;;;;;20.20;33.60;;;;;;5029075;28;20015;-59
2022/04/04 03:16:52;;;;;;;;;;;20.20;33.60;;;;;;5040808;28;20003;-59
2022/04/04 03:19:17;;;;;;;;;;;20.10;33.50;;;;;;5036327;28;19920;-59
2022/04/04 03:21:44;;;;;;;;;;;20.20;33.60;;;;;;5064331;28;19920;-61
2022/04/04 03:24:10;;;;;;;;;;;20.10;33.50;;;;;;5055891;28;19917;-59
2022/04/04 03:26:35;;;;;;;;;;;20.10;33.50;;;;;;5056263;28;19920;-59
2022/04/04 03:29:01;;;;;;;;;;;20.10;33.50;;;;;;5055977;28;19920;-59
2022/04/04 03:31:27;;;;;;;;;;;20.10;33.50;;;;;;5041948;28;19924;-59
2022/04/04 03:33:52;;;;;;;;;;;20.10;33.50;;;;;;5051940;28;20066;-59
2022/04/04 03:36:18;;;;;;;;;;;20.10;33.50;;;;;;5036059;28;19916;-59
2022/04/04 03:38:43;;;;;;;;;;;20.10;33.50;;;;;;5046945;28;19909;-59
2022/04/04 03:41:09;;;;;;;;;;;20.10;33.50;;;;;;5057389;28;19924;-59
2022/04/04 03:43:35;;;;;;;;;;;20.20;33.60;;;;;;5073413;28;19913;-59
2022/04/04 03:46:00;;;;;;;;;;;20.20;33.40;;;;;;5072712;28;19970;-59
2022/04/04 03:48:26;;;;;;;;;;;20.30;33.30;;;;;;5073351;28;19975;-59
2022/04/04 03:50:54;;;;;;;;;;;20.30;33.10;;;;;;5039194;28;19913;-59
2022/04/04 03:53:21;;;;;;;;;;;20.40;33.10;;;;;;5064295;28;19943;-59
2022/04/04 03:55:47;;;;;;;;;;;20.40;33.00;;;;;;5056933;28;19966;-59
2022/04/04 03:58:12;;;;;;;;;;;20.50;32.90;;;;;;5059551;28;20323;-59
2022/04/04 04:00:38;;;;;;;;;;;20.50;32.70;;;;;;5049647;28;19945;-59
2022/04/04 04:03:03;;;;;;;;;;;20.60;32.60;;;;;;5050284;28;19912;-59
2022/04/04 04:05:29;;;;;;;;;;;20.60;32.50;;;;;;5032082;28;20307;-59
2022/04/04 04:07:54;;;;;;;;;;;20.70;32.60;;;;;;5035857;28;19979;-59
2022/04/04 04:10:20;;;;;;;;;;;20.60;32.60;;;;;;5058931;28;19920;-59
2022/04/04 04:12:46;;;;;;;;;;;20.60;32.50;;;;;;5042621;28;19913;-59
2022/04/04 04:15:13;;;;;;;;;;;20.60;32.50;;;;;;5070287;28;19948;-59
2022/04/04 04:17:38;;;;;;;;;;;20.60;32.50;;;;;;5052271;28;19913;-59
2022/04/04 04:20:19;;;;;;;;;;;20.60;32.40;;;;;;5068173;28;20412;-59
2022/04/04 04:22:48;;;;;;;;;;;20.60;32.40;;;;;;5054084;28;19924;-59
2022/04/04 04:25:14;;;;;;;;;;;20.60;32.40;;;;;;5014606;28;20298;-59
2022/04/04 04:27:40;;;;;;;;;;;20.60;32.50;;;;;;5044354;28;19952;-60
2022/04/04 04:30:06;;;;;;;;;;;20.60;32.40;;;;;;5034598;28;20292;-59
2022/04/04 04:32:31;;;;;;;;;;;20.60;32.50;;;;;;5023904;28;19913;-59
2022/04/04 04:34:57;;;;;;;;;;;20.50;32.40;;;;;;5044055;28;19916;-59
2022/04/04 04:37:22;;;;;;;;;;;20.50;32.50;;;;;;5030889;28;19917;-59
2022/04/04 04:39:48;;;;;;;;;;;20.50;32.50;;;;;;5021021;28;19919;-59
2022/04/04 04:42:13;;;;;;;;;;;20.50;32.50;;;;;;5020808;28;19963;-59
2022/04/04 04:44:39;;;;;;;;;;;20.50;32.50;;;;;;5014803;28;19961;-59
2022/04/04 04:47:05;;;;;;;;;;;20.50;32.50;;;;;;5046466;28;19927;-59
2022/04/04 04:49:31;;;;;;;;;;;20.50;32.50;;;;;;5034378;28;19939;-59
2022/04/04 04:51:57;;;;;;;;;;;20.50;32.50;;;;;;5035285;28;19917;-59
2022/04/04 04:54:22;;;;;;;;;;;20.50;32.50;;;;;;5034114;28;19912;-59
2022/04/04 04:56:48;;;;;;;;;;;20.40;32.40;;;;;;5017617;28;19955;-59
2022/04/04 04:59:13;;;;;;;;;;;20.40;32.50;;;;;;5028101;28;19924;-59
2022/04/04 05:01:39;;;;;;;;;;;20.40;32.30;;;;;;5028766;28;19924;-61
2022/04/04 05:04:05;;;;;;;;;;;20.50;32.40;;;;;;5025939;28;20396;-59
2022/04/04 05:06:31;;;;;;;;;;;20.50;32.30;;;;;;5045747;28;19974;-59
2022/04/04 05:08:59;;;;;;;;;;;20.50;32.30;;;;;;5008076;28;20349;-59
2022/04/04 05:11:25;;;;;;;;;;;20.50;32.20;;;;;;5042730;28;19913;-59
2022/04/04 05:13:50;;;;;;;;;;;20.50;32.10;;;;;;5044234;28;19912;-59
2022/04/04 05:16:16;;;;;;;;;;;20.50;32.10;;;;;;5030579;28;20284;-59
2022/04/04 05:18:45;;;;;;;;;;;20.50;32.10;;;;;;5012382;28;20288;-59
2022/04/04 05:21:13;;;;;;;;;;;20.60;32.10;;;;;;5009230;28;19928;-59
2022/04/04 05:23:39;;;;;;;;;;;20.60;32.00;;;;;;5037194;28;19943;-59
2022/04/04 05:26:04;;;;;;;;;;;20.60;32.00;;;;;;5029012;28;20311;-59
2022/04/04 05:28:30;;;;;;;;;;;20.60;31.90;;;;;;5045980;28;20014;-59
2022/04/04 05:30:56;;;;;;;;;;;20.60;32.00;;;;;;5044438;28;19913;-59
2022/04/04 05:33:22;;;;;;;;;;;20.50;31.90;;;;;;5039172;28;19917;-59
2022/04/04 05:35:47;;;;;;;;;;;20.50;31.90;;;;;;5014843;28;19996;-59
2022/04/04 05:38:14;;;;;;;;;;;20.50;31.90;;;;;;5027031;28;19920;-59
2022/04/04 05:40:40;;;;;;;;;;;20.50;32.00;;;;;;5026927;28;19920;-59
2022/04/04 05:43:07;;;;;;;;;;;20.50;32.10;;;;;;5023728;28;19916;-59
2022/04/04 05:45:32;;;;;;;;;;;20.50;32.10;;;;;;5039330;28;20046;-58
2022/04/04 05:47:58;;;;;;;;;;;20.50;32.20;;;;;;5005324;28;19913;-59
2022/04/04 05:50:23;;;;;;;;;;;20.40;32.10;;;;;;5041967;28;20412;-59
2022/04/04 05:52:49;;;;;;;;;;;20.40;32.20;;;;;;5042123;28;19964;-59
2022/04/04 05:55:14;;;;;;;;;;;20.40;32.30;;;;;;5040937;28;19912;-59
2022/04/04 05:57:40;;;;;;;;;;;20.30;32.30;;;;;;5043645;28;20290;-59
2022/04/04 06:00:10;;;;;;;;;;;20.30;32.30;;;;;;5011416;28;19914;-59
2022/04/04 06:02:35;;;;;;;;;;;20.30;32.30;;;;;;5042904;28;19920;-59
2022/04/04 06:05:01;;;;;;;;;;;20.30;32.50;;;;;;5041850;28;20387;-59
2022/04/04 06:07:26;;;;;;;;;;;20.30;32.40;;;;;;5044550;28;20283;-59
2022/04/04 06:09:52;;;;;;;;;;;20.30;32.50;;;;;;5028326;28;20000;-59
2022/04/04 06:12:17;;;;;;;;;;;20.30;32.50;;;;;;5044146;28;19913;-59
2022/04/04 06:14:43;;;;;;;;;;;20.30;32.70;;;;;;5031801;28;19971;-59
2022/04/04 06:17:08;;;;;;;;;;;20.20;32.70;;;;;;5054053;28;19913;-59
2022/04/04 06:19:34;;;;;;;;;;;20.20;32.90;;;;;;5035057;28;20387;-59
2022/04/04 06:22:00;;;;;;;;;;;20.20;32.90;;;;;;5043963;28;20363;-59
2022/04/04 06:24:25;;;;;;;;;;;20.20;32.80;;;;;;5039913;28;19912;-59
2022/04/04 06:26:51;;;;;;;;;;;20.20;32.80;;;;;;5074812;28;19920;-59
2022/04/04 06:29:16;;;;;;;;;;;20.20;33.50;;;;;;5058347;28;20179;-59
2022/04/04 06:31:42;;;;;;;;;;;20.20;32.90;;;;;;5075376;28;19908;-61
2022/04/04 06:34:10;;;;;;;;;;;20.20;32.90;;;;;;5075305;28;19912;-59
2022/04/04 06:36:38;;;;;;;;;;;20.20;33.00;;;;;;5046785;28;19920;-59
2022/04/04 06:39:03;;;;;;;;;;;20.20;32.90;;;;;;5085261;28;19955;-59
2022/04/04 06:41:30;;;;;;;;;;;20.20;32.80;;;;;;5093665;28;19912;-59
2022/04/04 06:43:56;;;;;;;;;;;20.20;33.00;;;;;;5075153;28;19908;-59
2022/04/04 06:46:22;;;;;;;;;;;20.20;33.00;;;;;;5070086;28;20014;-59
2022/04/04 06:48:50;;;;;;;;;;;20.20;33.00;;;;;;5076157;28;19921;-59
2022/04/04 06:51:16;;;;;;;;;;;20.20;32.90;;;;;;5078355;28;20003;-59
2022/04/04 06:53:42;;;;;;;;;;;20.30;33.00;;;;;;5076602;28;20386;-59
2022/04/04 06:56:07;;;;;;;;;;;20.30;33.00;;;;;;5084346;28;19913;-59
2022/04/04 06:58:33;;;;;;;;;;;20.30;32.90;;;;;;5073993;28;20007;-59
2022/04/04 07:00:59;;;;;;;;;;;20.30;32.80;;;;;;5068936;28;19920;-59
2022/04/04 07:03:24;;;;;;;;;;;20.30;32.90;;;;;;5059778;28;19916;-59
2022/04/04 07:05:50;;;;;;;;;;;20.30;32.80;;;;;;5088146;28;19912;-59
2022/04/04 07:08:15;;;;;;;;;;;20.30;32.90;;;;;;5073611;28;19916;-60
2022/04/04 07:10:41;;;;;;;;;;;20.30;32.90;;;;;;5041548;28;19955;-59
2022/04/04 07:13:06;;;;;;;;;;;20.30;33.00;;;;;;5084872;28;19916;-59
2022/04/04 07:15:32;;;;;;;;;;;20.30;33.10;;;;;;5059705;28;19959;-59
2022/04/04 07:17:57;;;;;;;;;;;20.30;33.10;;;;;;5036079;28;19958;-59
2022/04/04 07:20:23;;;;;;;;;;;20.30;33.10;;;;;;5050483;28;19913;-59
2022/04/04 07:22:48;;;;;;;;;;;20.30;33.40;;;;;;5052838;28;20296;-59
2022/04/04 07:25:14;;;;;;;;;;;20.30;32.90;;;;;;5071023;28;19938;-59
2022/04/04 07:27:40;;;;;;;;;;;20.30;33.00;;;;;;5052671;28;20007;-59
2022/04/04 07:30:06;;;;;;;;;;;20.40;33.40;;;;;;5035682;28;19975;-59
2022/04/04 07:32:33;;;;;;;;;;;20.30;33.20;;;;;;5050177;28;19964;-59
2022/04/04 07:34:59;;;;;;;;;;;20.30;33.20;;;;;;5057816;28;20506;-59
2022/04/04 07:37:24;;;;;;;;;;;20.30;33.60;;;;;;5064104;28;20011;-59
2022/04/04 07:39:50;;;;;;;;;;;20.40;33.50;;;;;;5048961;28;19913;-60
2022/04/04 07:42:16;;;;;;;;;;;20.80;33.10;;;;;;5068449;28;19966;-60
2022/04/04 07:44:42;;;;;;;;;;;21.40;32.30;;;;;;5049615;28;20463;-60
2022/04/04 07:47:08;;;;;;;;;;;22.00;31.60;;;;;;5048387;28;19924;-60
2022/04/04 07:49:33;;;;;;;;;;;22.40;30.80;;;;;;5032428;28;20429;-60
2022/04/04 07:51:58;;;;;;;;;;;22.70;30.30;;;;;;5039353;28;19916;-60
2022/04/04 07:54:24;;;;;;;;;;;23.00;30.10;;;;;;5068872;28;19924;-60
2022/04/04 07:56:53;;;;;;;;;;;23.20;29.90;;;;;;5043561;28;20000;-60
2022/04/04 07:59:19;;;;;;;;;;;23.30;29.80;;;;;;5048965;28;19944;-60
2022/04/04 08:01:44;;;;;;;;;;;23.40;29.70;;;;;;5057923;28;19916;-61
2022/04/04 08:04:10;;;;;;;;;;;23.50;29.70;;;;;;5066038;28;19908;-60
2022/04/04 08:06:36;;;;;;;;;;;23.60;29.70;;;;;;5057388;28;19913;-60
2022/04/04 08:09:01;;;;;;;;;;;23.70;29.60;;;;;;5063438;28;19920;-59
2022/04/04 08:11:27;;;;;;;;;;;23.80;29.60;;;;;;5042608;28;20004;-60
2022/04/04 08:13:52;;;;;;;;;;;23.80;29.50;;;;;;5052669;28;19915;-60
2022/04/04 08:16:18;;;;;;;;;;;23.90;29.50;;;;;;5091391;28;19915;-60
2022/04/04 08:18:43;;;;;;;;;;;23.90;29.50;;;;;;5038141;28;19908;-60
2022/04/04 08:21:09;;;;;;;;;;;24.00;29.50;;;;;;5055467;28;19924;-60
2022/04/04 08:23:34;;;;;;;;;;;24.00;29.40;;;;;;5074391;28;19916;-60
2022/04/04 08:26:00;;;;;;;;;;;24.10;29.30;;;;;;5062641;28;19916;-60
2022/04/04 08:28:27;;;;;;;;;;;24.10;29.30;;;;;;5058098;28;19968;-60
2022/04/04 08:30:54;;;;;;;;;;;24.10;29.20;;;;;;5053887;28;21288;-60
2022/04/04 08:33:20;;;;;;;;;;;24.20;29.10;;;;;;5077012;28;19958;-60
2022/04/04 08:35:45;;;;;;;;;;;24.20;29.20;;;;;;5086004;28;20353;-61
2022/04/04 08:38:11;;;;;;;;;;;24.30;29.10;;;;;;5086905;28;20000;-61
2022/04/04 08:40:37;;;;;;;;;;;24.30;29.20;;;;;;5071317;28;19908;-62
2022/04/04 08:43:03;;;;;;;;;;;24.30;29.10;;;;;;5062475;28;19931;-61
2022/04/04 08:45:28;;;;;;;;;;;24.30;29.00;;;;;;5054599;28;19908;-60
2022/04/04 08:47:54;;;;;;;;;;;24.30;29.10;;;;;;5065990;28;19916;-60
2022/04/04 08:50:19;;;;;;;;;;;24.40;29.10;;;;;;5050714;28;19919;-61
2022/04/04 08:52:45;;;;;;;;;;;24.30;29.10;;;;;;5061349;28;20376;-60
2022/04/04 08:55:13;;;;;;;;;;;24.40;29.00;;;;;;5070053;28;20265;-61
2022/04/04 08:57:38;;;;;;;;;;;24.40;28.90;;;;;;5064421;28;19939;-61
2022/04/04 09:00:04;;;;;;;;;;;24.50;29.00;;;;;;5060304;28;20376;-60
2022/04/04 09:02:29;;;;;;;;;;;24.40;28.90;;;;;;5049903;28;19916;-61
2022/04/04 09:05:01;;;;;;;;;;;24.50;29.00;;;;;;5052658;28;19948;-61
2022/04/04 09:07:26;;;;;;;;;;;24.40;28.90;;;;;;5053255;28;19913;-61
2022/04/04 09:09:53;;;;;;;;;;;24.50;29.00;;;;;;5063174;28;19908;-63
2022/04/04 09:12:22;;;;;;;;;;;24.50;28.90;;;;;;5095993;28;19916;-60
2022/04/04 09:14:51;;;;;;;;;;;24.50;28.90;;;;;;5075898;28;19912;-61
2022/04/04 09:17:29;;;;;;;;;;;24.50;29.00;;;;;;5067473;28;19908;-61
2022/04/04 09:19:55;;;;;;;;;;;24.50;29.00;;;;;;5048515;28;19957;-61
2022/04/04 09:22:20;;;;;;;;;;;24.50;28.90;;;;;;5075961;28;20022;-61
2022/04/04 09:24:56;;;;;;;;;;;24.60;29.00;;;;;;5065114;28;19971;-61
2022/04/04 09:27:41;;;;;;;;;;;24.60;28.90;;;;;;5047919;28;19916;-61
2022/04/04 09:30:07;;;;;;;;;;;24.50;28.60;;;;;;5065979;28;19916;-60
2022/04/04 09:32:36;;;;;;;;;;;23.80;29.00;;;;;;5039255;28;19916;-61
2022/04/04 09:35:13;;;;;;;;;;;23.60;29.20;;;;;;5052554;28;19912;-61
2022/04/04 09:37:40;;;;;;;;;;;23.80;29.30;;;;;;5051747;28;20350;-61
2022/04/04 09:40:10;;;;;;;;;;;24.00;29.20;;;;;;5043770;28;19970;-61
2022/04/04 09:42:35;;;;;;;;;;;24.20;29.00;;;;;;5056517;28;19912;-61
2022/04/04 09:45:02;;;;;;;;;;;24.40;28.90;;;;;;5056986;28;20260;-61
2022/04/04 09:47:47;;;;;;;;;;;24.50;28.90;;;;;;5042856;28;19920;-60
2022/04/04 09:50:44;;;;;;;;;;;24.60;28.90;;;;;;5053850;28;19920;-61
2022/04/04 09:53:14;;;;;;;;;;;24.60;29.30;;;;;;5050290;28;20023;-62
2022/04/04 09:55:40;;;;;;;;;;;24.70;28.70;;;;;;5057729;28;19959;-61
2022/04/04 09:58:07;;;;;;;;;;;24.80;28.80;;;;;;5042682;28;19913;-61
2022/04/04 10:00:36;;;;;;;;;;;24.90;28.70;;;;;;5055689;28;19916;-61
2022/04/04 10:03:03;;;;;;;;;;;24.90;28.60;;;;;;5051909;28;19920;-61
2022/04/04 10:05:28;;;;;;;;;;;24.90;28.60;;;;;;5041735;28;19919;-61
2022/04/04 10:07:55;;;;;;;;;;;24.90;28.50;;;;;;5058576;28;20520;-60
2022/04/04 10:10:23;;;;;;;;;;;25.00;28.60;;;;;;5054360;28;19909;-62
2022/04/04 10:12:48;;;;;;;;;;;25.00;28.50;;;;;;5050703;28;19913;-62
2022/04/04 10:15:14;;;;;;;;;;;25.00;28.60;;;;;;5050462;28;19924;-60
2022/04/04 10:17:39;;;;;;;;;;;25.00;28.60;;;;;;5057476;28;20000;-61
2022/04/04 10:20:06;;;;;;;;;;;24.90;28.80;;;;;;5058461;28;19915;-61
2022/04/04 10:22:32;;;;;;;;;;;24.90;28.90;;;;;;5041364;28;19924;-61
2022/04/04 10:24:57;;;;;;;;;;;24.90;29.00;;;;;;5054565;28;19980;-60
2022/04/04 10:27:23;;;;;;;;;;;24.80;29.00;;;;;;5075741;28;19923;-61
2022/04/04 10:29:48;;;;;;;;;;;24.80;29.10;;;;;;5043996;28;19912;-60
2022/04/04 10:32:21;;;;;;;;;;;24.70;29.20;;;;;;5056301;28;19924;-61
2022/04/04 10:34:46;;;;;;;;;;;24.70;29.30;;;;;;5059165;28;19924;-61
2022/04/04 10:37:14;;;;;;;;;;;24.70;29.40;;;;;;5063647;28;19912;-61
2022/04/04 10:39:47;;;;;;;;;;;24.60;29.50;;;;;;5057260;28;20360;-60
2022/04/04 10:42:28;;;;;;;;;;;24.60;29.50;;;;;;5040753;28;19990;-61
2022/04/04 10:44:57;;;;;;;;;;;24.50;29.40;;;;;;5058763;28;20398;-60
2022/04/04 10:47:22;;;;;;;;;;;24.50;29.50;;;;;;5075002;28;19917;-60
2022/04/04 10:49:48;;;;;;;;;;;24.50;29.50;;;;;;5057390;28;19939;-61
2022/04/04 10:52:16;;;;;;;;;;;24.50;29.50;;;;;;5062276;28;20355;-61
2022/04/04 10:54:41;;;;;;;;;;;24.60;29.60;;;;;;5046469;28;19916;-61
2022/04/04 10:57:16;;;;;;;;;;;24.60;29.50;;;;;;5069114;28;19966;-61
2022/04/04 10:59:48;;;;;;;;;;;24.60;29.30;;;;;;5058629;28;19909;-62
2022/04/04 11:02:15;;;;;;;;;;;24.70;29.30;;;;;;5066990;28;19913;-61
2022/04/04 11:07:41;;;;;;;;;;;24.70;29.20;;;;;;5057988;28;19950;-61
2022/04/04 11:10:08;;;;;;;;;;;24.70;29.30;;;;;;5042304;28;20322;-61
2022/04/04 11:12:52;;;;;;;;;;;24.80;29.30;;;;;;5087490;28;19912;-61
2022/04/04 11:15:17;;;;;;;;;;;24.80;29.30;;;;;;5069296;28;20008;-61
2022/04/04 11:17:55;;;;;;;;;;;24.80;29.30;;;;;;5076573;28;19912;-61
2022/04/04 11:20:33;;;;;;;;;;;24.90;29.30;;;;;;5048765;28;20402;-61
2022/04/04 11:23:09;;;;;;;;;;;24.90;29.50;;;;;;5080715;28;19920;-61
2022/04/04 11:25:37;;;;;;;;;;;24.90;29.30;;;;;;5055203;28;19916;-61
2022/04/04 11:28:03;;;;;;;;;;;24.90;29.30;;;;;;5059880;28;19921;-61
2022/04/04 11:30:29;;;;;;;;;;;24.90;29.40;;;;;;5049569;28;19916;-61
2022/04/04 11:32:57;;;;;;;;;;;24.80;29.30;;;;;;5062252;28;20803;-61
2022/04/04 11:35:23;;;;;;;;;;;24.90;29.40;;;;;;5059738;28;19947;-61
2022/04/04 11:37:49;;;;;;;;;;;24.90;29.40;;;;;;5029956;28;20052;-60
2022/04/04 11:40:17;;;;;;;;;;;24.90;29.50;;;;;;5055503;28;19912;-61
2022/04/04 11:42:44;;;;;;;;;;;24.90;29.50;;;;;;5039964;28;19913;-61
2022/04/04 11:45:13;;;;;;;;;;;24.90;29.50;;;;;;5048931;28;19919;-60
2022/04/04 11:47:40;;;;;;;;;;;24.80;29.40;;;;;;5060599;28;19961;-60
2022/04/04 11:50:06;;;;;;;;;;;24.80;29.40;;;;;;5056283;28;19934;-60
2022/04/04 11:52:52;;;;;;;;;;;24.80;29.40;;;;;;5058907;28;20318;-61
2022/04/04 11:55:18;;;;;;;;;;;24.80;29.40;;;;;;5041936;28;19912;-60
2022/04/04 11:57:46;;;;;;;;;;;24.80;29.40;;;;;;5062779;28;19919;-61
2022/04/04 12:00:21;;;;;;;;;;;24.80;29.50;;;;;;5055776;28;20292;-59
2022/04/04 12:02:47;;;;;;;;;;;24.80;29.60;;;;;;5047576;28;19966;-60
2022/04/04 12:05:14;;;;;;;;;;;24.80;29.60;;;;;;5056464;28;19924;-60
2022/04/04 12:07:40;;;;;;;;;;;24.80;29.70;;;;;;5055862;28;19972;-60
2022/04/04 12:10:06;;;;;;;;;;;24.80;29.60;;;;;;5054172;28;20372;-60
2022/04/04 12:12:32;;;;;;;;;;;24.80;29.70;;;;;;5047010;28;19909;-60
2022/04/04 12:14:57;;;;;;;;;;;24.80;29.70;;;;;;5058845;28;19939;-61
2022/04/04 12:17:23;;;;;;;;;;;24.80;29.80;;;;;;5073022;28;19909;-61
2022/04/04 12:19:50;;;;;;;;;;;24.80;29.80;;;;;;5066222;28;19916;-60
2022/04/04 12:25:03;;;;;;;;;;;24.80;29.70;;;;;;5072517;28;19920;-61
2022/04/04 12:27:29;;;;;;;;;;;24.80;29.80;;;;;;5074739;28;19920;-61
2022/04/04 12:30:01;;;;;;;;;;;24.80;29.70;;;;;;5053691;28;20011;-61
2022/04/04 12:32:27;;;;;;;;;;;24.80;29.70;;;;;;5071083;28;19912;-60
2022/04/04 12:34:59;;;;;;;;;;;24.90;29.80;;;;;;5056698;28;19908;-61
2022/04/04 12:37:38;;;;;;;;;;;24.90;29.70;;;;;;5058915;28;19915;-61
2022/04/04 12:40:17;;;;;;;;;;;24.90;30.10;;;;;;5071506;28;19912;-61
2022/04/04 12:42:42;;;;;;;;;;;24.90;29.70;;;;;;5067271;28;19955;-61
2022/04/04 12:45:08;;;;;;;;;;;24.90;29.60;;;;;;5074640;28;19919;-60
2022/04/04 12:47:34;;;;;;;;;;;24.90;29.60;;;;;;5082793;28;20293;-60
2022/04/04 12:50:12;;;;;;;;;;;25.00;29.70;;;;;;5069507;28;19916;-61
2022/04/04 12:52:56;;;;;;;;;;;25.00;29.70;;;;;;5058990;28;19957;-61
2022/04/04 12:55:22;;;;;;;;;;;25.00;29.60;;;;;;5072522;28;19920;-61
2022/04/04 12:57:47;;;;;;;;;;;25.00;29.50;;;;;;5049178;28;19924;-61
2022/04/04 13:00:23;;;;;;;;;;;25.00;29.50;;;;;;5057256;28;19909;-61
2022/04/04 13:02:49;;;;;;;;;;;25.00;29.50;;;;;;5074738;28;19908;-61
2022/04/04 13:05:15;;;;;;;;;;;24.90;29.50;;;;;;5087615;28;19908;-63
2022/04/04 13:07:47;;;;;;;;;;;24.90;29.60;;;;;;5049373;28;19973;-61
2022/04/04 13:10:12;;;;;;;;;;;24.90;29.70;;;;;;5053817;28;20014;-61
2022/04/04 13:12:41;;;;;;;;;;;24.80;29.70;;;;;;5073951;28;20043;-61
2022/04/04 13:15:07;;;;;;;;;;;24.80;29.80;;;;;;5068551;28;19973;-61
2022/04/04 13:17:36;;;;;;;;;;;24.80;29.80;;;;;;5087041;28;19908;-61
2022/04/04 13:20:02;;;;;;;;;;;24.70;29.80;;;;;;5059139;28;19916;-61
2022/04/04 13:22:28;;;;;;;;;;;24.70;29.90;;;;;;5072385;28;20371;-61
2022/04/04 13:24:53;;;;;;;;;;;24.70;29.90;;;;;;5059378;28;19920;-61
2022/04/04 13:27:23;;;;;;;;;;;24.60;29.90;;;;;;5077286;28;20367;-61
2022/04/04 13:29:48;;;;;;;;;;;24.60;30.00;;;;;;5054343;28;20352;-61
2022/04/04 13:32:14;;;;;;;;;;;24.50;30.00;;;;;;5073362;28;19965;-61
2022/04/04 13:34:41;;;;;;;;;;;24.50;30.00;;;;;;5053589;28;19944;-61
2022/04/04 13:37:06;;;;;;;;;;;24.50;30.00;;;;;;5042503;28;19950;-61
2022/04/04 13:39:32;;;;;;;;;;;24.50;30.00;;;;;;5052941;28;19936;-61
2022/04/04 13:41:59;;;;;;;;;;;24.50;30.00;;;;;;5055081;28;19919;-61
2022/04/04 13:44:24;;;;;;;;;;;24.50;30.10;;;;;;5057771;28;19916;-62
2022/04/04 13:46:49;;;;;;;;;;;24.50;30.10;;;;;;5074428;28;20438;-61
2022/04/04 13:49:15;;;;;;;;;;;24.50;30.10;;;;;;5065954;28;20271;-61
2022/04/04 13:51:40;;;;;;;;;;;24.50;30.10;;;;;;5055833;28;19975;-61
2022/04/04 13:54:06;;;;;;;;;;;24.50;30.10;;;;;;5065680;28;19908;-61
2022/04/04 13:56:31;;;;;;;;;;;24.50;30.10;;;;;;5072881;28;19954;-61
2022/04/04 13:58:57;;;;;;;;;;;24.50;30.10;;;;;;5064321;28;20419;-61
2022/04/04 14:01:23;;;;;;;;;;;24.50;30.10;;;;;;5066399;28;19951;-61
2022/04/04 14:03:51;;;;;;;;;;;24.60;30.20;;;;;;5058681;28;19937;-61
2022/04/04 14:06:17;;;;;;;;;;;24.60;30.20;;;;;;5069726;28;19916;-61
2022/04/04 14:08:42;;;;;;;;;;;24.60;30.10;;;;;;5039220;28;19912;-61
2022/04/04 14:11:08;;;;;;;;;;;24.60;30.10;;;;;;5077350;28;19919;-61
2022/04/04 14:13:34;;;;;;;;;;;24.70;30.10;;;;;;5058125;28;19912;-61
2022/04/04 14:15:59;;;;;;;;;;;24.70;30.10;;;;;;5094259;28;19912;-61
2022/04/04 14:18:25;;;;;;;;;;;24.70;30.10;;;;;;5056351;28;19927;-61
2022/04/04 14:20:50;;;;;;;;;;;24.70;30.20;;;;;;5089835;28;19970;-61